sensor_id;sensor_type;location;lat;lon;timestamp;temperature;humidity
39099;DHT22;24844;52.380;7.018;2023-07-16T00:01:58;17.70;99.90
39099;DHT22;24844;52.380;7.018;2023-07-16T00:04:23;17.70;99.90
39099;DHT22;24844;52.380;7.018;2023-07-16T00:06:49;17.60;99.90
39099;DHT22;24844;52.380;7.018;2023-07-16T00:09:15;17.60;99.90
39099;DHT22;24844;52.380;7.018;2023-07-16T00:11:41;17.60;99.90
39099;DHT22;24844;52.380;7.018;2023-07-16T00:14:07;17.70;99.90
39099;DHT22;24844;52.380;7.018;2023-07-16T00:16:33;17.70;99.90
39099;DHT22;24844;52.380;7.018;2023-07-16T00:18:59;17.80;99.90
39099;DHT22;24844;52.380;7.018;2023-07-16T00:21:24;17.80;99.90
39099;DHT22;24844;52.380;7.018;2023-07-16T00:23:50;17.90;99.90
39099;DHT22;24844;52.380;7.018;2023-07-16T00:26:16;17.90;99.90
39099;DHT22;24844;52.380;7.018;2023-07-16T00:28:42;17.80;99.90
39099;DHT22;24844;52.380;7.018;2023-07-16T00:31:07;17.70;99.90
39099;DHT22;24844;52.380;7.018;2023-07-16T00:33:33;17.60;99.90
39099;DHT22;24844;52.380;7.018;2023-07-16T00:35:58;17.50;99.90
39099;DHT22;24844;52.380;7.018;2023-07-16T00:38:24;17.50;99.90
39099;DHT22;24844;52.380;7.018;2023-07-16T00:40:50;17.50;99.90
39099;DHT22;24844;52.380;7.018;2023-07-16T00:43:16;17.40;99.90
39099;DHT22;24844;52.380;7.018;2023-07-16T00:45:42;17.50;99.90
39099;DHT22;24844;52.380;7.018;2023-07-16T00:48:10;17.40;99.90
39099;DHT22;24844;52.380;7.018;2023-07-16T00:50:38;17.50;99.90
39099;DHT22;24844;52.380;7.018;2023-07-16T00:53:09;17.50;99.90
39099;DHT22;24844;52.380;7.018;2023-07-16T00:55:36;17.50;99.90
39099;DHT22;24844;52.380;7.018;2023-07-16T00:58:04;17.50;99.90
39099;DHT22;24844;52.380;7.018;2023-07-16T01:00:31;17.50;99.90
39099;DHT22;24844;52.380;7.018;2023-07-16T01:02:57;17.50;99.90
39099;DHT22;24844;52.380;7.018;2023-07-16T01:05:24;17.60;99.90
39099;DHT22;24844;52.380;7.018;2023-07-16T01:07:58;17.50;99.90
39099;DHT22;24844;52.380;7.018;2023-07-16T01:10:25;17.50;99.90
39099;DHT22;24844;52.380;7.018;2023-07-16T01:12:55;17.50;99.90
39099;DHT22;24844;52.380;7.018;2023-07-16T01:15:21;17.60;99.90
39099;DHT22;24844;52.380;7.018;2023-07-16T01:17:47;17.50;99.90
39099;DHT22;24844;52.380;7.018;2023-07-16T01:20:13;17.50;99.90
39099;DHT22;24844;52.380;7.018;2023-07-16T01:30:59;17.50;99.90
39099;DHT22;24844;52.380;7.018;2023-07-16T01:33:25;17.50;99.90
39099;DHT22;24844;52.380;7.018;2023-07-16T01:35:52;17.40;99.90
39099;DHT22;24844;52.380;7.018;2023-07-16T01:38:18;17.30;99.90
39099;DHT22;24844;52.380;7.018;2023-07-16T01:40:46;17.10;99.90
39099;DHT22;24844;52.380;7.018;2023-07-16T01:43:12;17.10;99.90
39099;DHT22;24844;52.380;7.018;2023-07-16T01:45:38;17.10;99.90
39099;DHT22;24844;52.380;7.018;2023-07-16T01:48:33;17.20;99.90
39099;DHT22;24844;52.380;7.018;2023-07-16T01:51:00;17.20;99.90
39099;DHT22;24844;52.380;7.018;2023-07-16T01:53:25;17.20;99.90
39099;DHT22;24844;52.380;7.018;2023-07-16T01:55:51;17.20;99.90
39099;DHT22;24844;52.380;7.018;2023-07-16T01:58:17;17.20;99.90
39099;DHT22;24844;52.380;7.018;2023-07-16T02:00:42;17.20;99.90
39099;DHT22;24844;52.380;7.018;2023-07-16T02:03:08;17.20;99.90
39099;DHT22;24844;52.380;7.018;2023-07-16T02:05:34;17.20;99.90
39099;DHT22;24844;52.380;7.018;2023-07-16T02:07:59;17.20;99.90
39099;DHT22;24844;52.380;7.018;2023-07-16T02:10:25;17.10;99.90
39099;DHT22;24844;52.380;7.018;2023-07-16T02:12:51;17.10;99.90
39099;DHT22;24844;52.380;7.018;2023-07-16T02:15:17;17.00;99.90
39099;DHT22;24844;52.380;7.018;2023-07-16T02:17:43;17.00;99.90
39099;DHT22;24844;52.380;7.018;2023-07-16T02:20:09;17.00;99.90
39099;DHT22;24844;52.380;7.018;2023-07-16T02:22:38;17.00;99.90
39099;DHT22;24844;52.380;7.018;2023-07-16T02:25:04;17.00;99.90
39099;DHT22;24844;52.380;7.018;2023-07-16T02:27:30;17.10;99.90
39099;DHT22;24844;52.380;7.018;2023-07-16T02:29:55;17.10;99.90
39099;DHT22;24844;52.380;7.018;2023-07-16T02:32:21;17.10;99.90
39099;DHT22;24844;52.380;7.018;2023-07-16T02:34:47;17.00;99.90
39099;DHT22;24844;52.380;7.018;2023-07-16T02:37:12;17.10;99.90
39099;DHT22;24844;52.380;7.018;2023-07-16T02:39:43;17.10;99.90
39099;DHT22;24844;52.380;7.018;2023-07-16T02:42:08;17.10;99.90
39099;DHT22;24844;52.380;7.018;2023-07-16T02:44:34;17.00;99.90
39099;DHT22;24844;52.380;7.018;2023-07-16T02:47:04;17.00;99.90
39099;DHT22;24844;52.380;7.018;2023-07-16T02:49:29;17.00;99.90
39099;DHT22;24844;52.380;7.018;2023-07-16T02:51:55;17.10;99.90
39099;DHT22;24844;52.380;7.018;2023-07-16T02:54:20;17.00;99.90
39099;DHT22;24844;52.380;7.018;2023-07-16T02:56:47;17.00;99.90
39099;DHT22;24844;52.380;7.018;2023-07-16T02:59:12;16.80;99.90
39099;DHT22;24844;52.380;7.018;2023-07-16T03:01:38;16.80;99.90
39099;DHT22;24844;52.380;7.018;2023-07-16T03:04:03;16.80;99.90
39099;DHT22;24844;52.380;7.018;2023-07-16T03:06:29;16.70;99.90
39099;DHT22;24844;52.380;7.018;2023-07-16T03:08:55;16.60;99.90
39099;DHT22;24844;52.380;7.018;2023-07-16T03:11:20;16.60;99.90
39099;DHT22;24844;52.380;7.018;2023-07-16T03:13:46;16.70;99.90
39099;DHT22;24844;52.380;7.018;2023-07-16T03:16:11;16.60;99.90
39099;DHT22;24844;52.380;7.018;2023-07-16T03:18:37;16.60;99.90
39099;DHT22;24844;52.380;7.018;2023-07-16T03:21:03;16.50;99.90
39099;DHT22;24844;52.380;7.018;2023-07-16T03:23:28;16.70;99.90
39099;DHT22;24844;52.380;7.018;2023-07-16T03:25:54;16.60;99.90
39099;DHT22;24844;52.380;7.018;2023-07-16T03:28:20;16.50;99.90
39099;DHT22;24844;52.380;7.018;2023-07-16T03:30:49;16.40;99.90
39099;DHT22;24844;52.380;7.018;2023-07-16T03:33:15;16.50;99.90
39099;DHT22;24844;52.380;7.018;2023-07-16T03:35:45;16.50;99.90
39099;DHT22;24844;52.380;7.018;2023-07-16T03:38:11;16.40;99.90
39099;DHT22;24844;52.380;7.018;2023-07-16T03:40:37;16.40;99.90
39099;DHT22;24844;52.380;7.018;2023-07-16T03:43:04;16.30;99.90
39099;DHT22;24844;52.380;7.018;2023-07-16T03:45:29;16.50;99.90
39099;DHT22;24844;52.380;7.018;2023-07-16T03:47:55;16.50;99.90
39099;DHT22;24844;52.380;7.018;2023-07-16T03:50:21;16.70;99.90
39099;DHT22;24844;52.380;7.018;2023-07-16T03:52:47;16.70;99.90
39099;DHT22;24844;52.380;7.018;2023-07-16T03:55:12;16.70;99.90
39099;DHT22;24844;52.380;7.018;2023-07-16T03:57:38;16.70;99.90
39099;DHT22;24844;52.380;7.018;2023-07-16T04:00:04;16.60;99.90
39099;DHT22;24844;52.380;7.018;2023-07-16T04:02:35;16.60;99.90
39099;DHT22;24844;52.380;7.018;2023-07-16T04:05:01;16.60;99.90
39099;DHT22;24844;52.380;7.018;2023-07-16T04:07:27;16.60;99.90
39099;DHT22;24844;52.380;7.018;2023-07-16T04:09:53;16.60;99.90
39099;DHT22;24844;52.380;7.018;2023-07-16T04:12:18;16.70;99.90
39099;DHT22;24844;52.380;7.018;2023-07-16T04:14:44;16.70;99.90
39099;DHT22;24844;52.380;7.018;2023-07-16T04:17:10;16.60;99.90
39099;DHT22;24844;52.380;7.018;2023-07-16T04:19:35;16.60;99.90
39099;DHT22;24844;52.380;7.018;2023-07-16T04:22:01;16.60;99.90
39099;DHT22;24844;52.380;7.018;2023-07-16T04:24:27;16.60;99.90
39099;DHT22;24844;52.380;7.018;2023-07-16T04:26:53;16.70;99.90
39099;DHT22;24844;52.380;7.018;2023-07-16T04:29:19;16.80;99.90
39099;DHT22;24844;52.380;7.018;2023-07-16T04:31:45;16.90;99.90
39099;DHT22;24844;52.380;7.018;2023-07-16T04:34:10;17.10;99.90
39099;DHT22;24844;52.380;7.018;2023-07-16T04:36:36;17.20;99.90
39099;DHT22;24844;52.380;7.018;2023-07-16T04:39:02;17.40;99.90
39099;DHT22;24844;52.380;7.018;2023-07-16T04:41:27;17.40;99.90
39099;DHT22;24844;52.380;7.018;2023-07-16T04:43:53;17.40;99.90
39099;DHT22;24844;52.380;7.018;2023-07-16T04:46:19;17.50;99.90
39099;DHT22;24844;52.380;7.018;2023-07-16T04:48:44;17.70;99.90
39099;DHT22;24844;52.380;7.018;2023-07-16T04:51:10;17.60;99.90
39099;DHT22;24844;52.380;7.018;2023-07-16T04:53:35;17.20;99.90
39099;DHT22;24844;52.380;7.018;2023-07-16T04:56:01;17.40;99.90
39099;DHT22;24844;52.380;7.018;2023-07-16T04:58:27;17.90;99.90
39099;DHT22;24844;52.380;7.018;2023-07-16T05:00:52;18.20;99.90
39099;DHT22;24844;52.380;7.018;2023-07-16T05:03:18;18.60;99.90
39099;DHT22;24844;52.380;7.018;2023-07-16T05:05:43;18.60;99.90
39099;DHT22;24844;52.380;7.018;2023-07-16T05:08:09;18.80;99.90
39099;DHT22;24844;52.380;7.018;2023-07-16T05:10:35;18.60;99.90
39099;DHT22;24844;52.380;7.018;2023-07-16T05:13:00;18.60;99.90
39099;DHT22;24844;52.380;7.018;2023-07-16T05:15:29;18.80;99.90
39099;DHT22;24844;52.380;7.018;2023-07-16T05:17:54;19.30;99.90
39099;DHT22;24844;52.380;7.018;2023-07-16T05:20:22;19.30;99.90
39099;DHT22;24844;52.380;7.018;2023-07-16T05:22:48;19.00;99.90
39099;DHT22;24844;52.380;7.018;2023-07-16T05:25:14;19.00;99.90
39099;DHT22;24844;52.380;7.018;2023-07-16T05:27:39;19.40;99.90
39099;DHT22;24844;52.380;7.018;2023-07-16T05:30:05;19.30;99.90
39099;DHT22;24844;52.380;7.018;2023-07-16T05:32:31;19.40;99.90
39099;DHT22;24844;52.380;7.018;2023-07-16T05:34:56;19.10;99.90
39099;DHT22;24844;52.380;7.018;2023-07-16T05:37:22;19.10;99.90
39099;DHT22;24844;52.380;7.018;2023-07-16T05:39:48;18.70;99.90
39099;DHT22;24844;52.380;7.018;2023-07-16T05:42:13;18.70;99.90
39099;DHT22;24844;52.380;7.018;2023-07-16T05:44:39;18.70;99.90
39099;DHT22;24844;52.380;7.018;2023-07-16T05:47:05;19.00;99.90
39099;DHT22;24844;52.380;7.018;2023-07-16T05:49:31;18.70;99.90
39099;DHT22;24844;52.380;7.018;2023-07-16T05:51:57;19.20;99.90
39099;DHT22;24844;52.380;7.018;2023-07-16T05:54:23;19.20;99.90
39099;DHT22;24844;52.380;7.018;2023-07-16T05:56:49;19.00;99.90
39099;DHT22;24844;52.380;7.018;2023-07-16T05:59:14;18.90;99.90
39099;DHT22;24844;52.380;7.018;2023-07-16T06:01:40;18.60;99.90
39099;DHT22;24844;52.380;7.018;2023-07-16T06:04:05;18.70;99.90
39099;DHT22;24844;52.380;7.018;2023-07-16T06:06:31;18.80;99.90
39099;DHT22;24844;52.380;7.018;2023-07-16T06:08:57;19.10;99.90
39099;DHT22;24844;52.380;7.018;2023-07-16T06:11:22;19.00;99.90
39099;DHT22;24844;52.380;7.018;2023-07-16T06:13:48;19.10;99.90
39099;DHT22;24844;52.380;7.018;2023-07-16T06:16:13;19.00;99.90
39099;DHT22;24844;52.380;7.018;2023-07-16T06:18:40;19.10;99.90
39099;DHT22;24844;52.380;7.018;2023-07-16T06:21:05;19.40;99.90
39099;DHT22;24844;52.380;7.018;2023-07-16T06:23:31;19.60;99.90
39099;DHT22;24844;52.380;7.018;2023-07-16T06:25:57;19.50;99.90
39099;DHT22;24844;52.380;7.018;2023-07-16T06:28:23;19.60;99.90
39099;DHT22;24844;52.380;7.018;2023-07-16T06:30:49;19.40;99.90
39099;DHT22;24844;52.380;7.018;2023-07-16T06:33:17;19.80;99.90
39099;DHT22;24844;52.380;7.018;2023-07-16T06:35:46;20.10;99.90
39099;DHT22;24844;52.380;7.018;2023-07-16T06:38:13;20.10;99.90
39099;DHT22;24844;52.380;7.018;2023-07-16T06:40:39;20.70;99.90
39099;DHT22;24844;52.380;7.018;2023-07-16T06:43:05;20.70;99.90
39099;DHT22;24844;52.380;7.018;2023-07-16T06:45:30;21.40;99.90
39099;DHT22;24844;52.380;7.018;2023-07-16T06:47:56;22.20;99.90
39099;DHT22;24844;52.380;7.018;2023-07-16T06:50:22;22.80;98.20
39099;DHT22;24844;52.380;7.018;2023-07-16T06:52:47;22.60;97.30
39099;DHT22;24844;52.380;7.018;2023-07-16T06:55:13;22.40;97.80
39099;DHT22;24844;52.380;7.018;2023-07-16T06:57:38;22.90;97.20
39099;DHT22;24844;52.380;7.018;2023-07-16T07:00:05;23.20;96.20
39099;DHT22;24844;52.380;7.018;2023-07-16T07:02:31;23.10;95.10
39099;DHT22;24844;52.380;7.018;2023-07-16T07:04:57;23.20;95.60
39099;DHT22;24844;52.380;7.018;2023-07-16T07:07:23;24.10;94.80
39099;DHT22;24844;52.380;7.018;2023-07-16T07:09:49;24.30;92.60
39099;DHT22;24844;52.380;7.018;2023-07-16T07:12:15;23.80;93.70
39099;DHT22;24844;52.380;7.018;2023-07-16T07:14:40;23.60;94.00
39099;DHT22;24844;52.380;7.018;2023-07-16T07:17:06;24.50;93.60
39099;DHT22;24844;52.380;7.018;2023-07-16T07:19:31;24.60;93.30
39099;DHT22;24844;52.380;7.018;2023-07-16T07:21:57;24.10;92.60
39099;DHT22;24844;52.380;7.018;2023-07-16T07:24:23;23.10;94.70
39099;DHT22;24844;52.380;7.018;2023-07-16T07:26:48;24.10;93.90
39099;DHT22;24844;52.380;7.018;2023-07-16T07:29:14;24.80;91.60
39099;DHT22;24844;52.380;7.018;2023-07-16T07:31:40;25.10;91.40
39099;DHT22;24844;52.380;7.018;2023-07-16T07:34:05;25.00;91.00
39099;DHT22;24844;52.380;7.018;2023-07-16T07:36:31;24.70;91.20
39099;DHT22;24844;52.380;7.018;2023-07-16T07:38:56;25.00;90.70
39099;DHT22;24844;52.380;7.018;2023-07-16T07:41:22;25.60;90.20
39099;DHT22;24844;52.380;7.018;2023-07-16T07:43:48;25.30;90.00
39099;DHT22;24844;52.380;7.018;2023-07-16T07:46:13;24.60;90.70
39099;DHT22;24844;52.380;7.018;2023-07-16T07:48:39;24.90;90.90
39099;DHT22;24844;52.380;7.018;2023-07-16T07:51:04;25.70;89.50
39099;DHT22;24844;52.380;7.018;2023-07-16T07:53:30;26.20;88.60
39099;DHT22;24844;52.380;7.018;2023-07-16T07:55:56;26.40;85.50
39099;DHT22;24844;52.380;7.018;2023-07-16T07:58:21;26.50;87.20
39099;DHT22;24844;52.380;7.018;2023-07-16T08:00:47;27.80;83.70
39099;DHT22;24844;52.380;7.018;2023-07-16T08:03:12;27.60;82.90
39099;DHT22;24844;52.380;7.018;2023-07-16T08:05:38;28.00;79.00
39099;DHT22;24844;52.380;7.018;2023-07-16T08:08:03;27.10;78.80
39099;DHT22;24844;52.380;7.018;2023-07-16T08:10:29;27.50;79.20
39099;DHT22;24844;52.380;7.018;2023-07-16T08:12:55;27.90;78.70
39099;DHT22;24844;52.380;7.018;2023-07-16T08:15:20;28.10;77.90
39099;DHT22;24844;52.380;7.018;2023-07-16T08:17:46;27.90;77.40
39099;DHT22;24844;52.380;7.018;2023-07-16T08:20:13;28.60;74.90
39099;DHT22;24844;52.380;7.018;2023-07-16T08:22:39;28.80;74.00
39099;DHT22;24844;52.380;7.018;2023-07-16T08:25:06;28.90;74.60
39099;DHT22;24844;52.380;7.018;2023-07-16T08:27:31;27.70;74.00
39099;DHT22;24844;52.380;7.018;2023-07-16T08:29:57;27.60;76.50
39099;DHT22;24844;52.380;7.018;2023-07-16T08:32:23;27.80;74.40
39099;DHT22;24844;52.380;7.018;2023-07-16T08:34:49;28.20;73.90
39099;DHT22;24844;52.380;7.018;2023-07-16T08:37:15;28.00;73.30
39099;DHT22;24844;52.380;7.018;2023-07-16T08:39:40;28.80;74.20
39099;DHT22;24844;52.380;7.018;2023-07-16T08:42:06;29.90;72.70
39099;DHT22;24844;52.380;7.018;2023-07-16T08:44:34;28.90;72.90
39099;DHT22;24844;52.380;7.018;2023-07-16T08:47:00;28.90;70.50
39099;DHT22;24844;52.380;7.018;2023-07-16T08:49:29;28.20;72.50
39099;DHT22;24844;52.380;7.018;2023-07-16T08:51:55;28.30;72.70
39099;DHT22;24844;52.380;7.018;2023-07-16T08:54:22;28.20;72.90
39099;DHT22;24844;52.380;7.018;2023-07-16T08:56:48;27.90;74.00
39099;DHT22;24844;52.380;7.018;2023-07-16T08:59:14;28.30;74.40
39099;DHT22;24844;52.380;7.018;2023-07-16T09:01:40;27.30;73.40
39099;DHT22;24844;52.380;7.018;2023-07-16T09:04:06;26.70;77.60
39099;DHT22;24844;52.380;7.018;2023-07-16T09:06:31;26.70;78.50
39099;DHT22;24844;52.380;7.018;2023-07-16T09:08:57;26.50;77.50
39099;DHT22;24844;52.380;7.018;2023-07-16T09:11:23;26.10;81.10
39099;DHT22;24844;52.380;7.018;2023-07-16T09:13:49;26.10;80.70
39099;DHT22;24844;52.380;7.018;2023-07-16T09:16:17;26.10;82.50
39099;DHT22;24844;52.380;7.018;2023-07-16T09:18:43;26.30;79.50
39099;DHT22;24844;52.380;7.018;2023-07-16T09:21:10;26.70;80.80
39099;DHT22;24844;52.380;7.018;2023-07-16T09:23:36;26.90;78.10
39099;DHT22;24844;52.380;7.018;2023-07-16T09:26:02;27.30;77.50
39099;DHT22;24844;52.380;7.018;2023-07-16T09:28:31;27.40;76.00
39099;DHT22;24844;52.380;7.018;2023-07-16T09:31:06;27.00;76.50
39099;DHT22;24844;52.380;7.018;2023-07-16T09:33:33;26.00;79.10
39099;DHT22;24844;52.380;7.018;2023-07-16T09:35:59;25.70;79.30
39099;DHT22;24844;52.380;7.018;2023-07-16T09:38:27;25.20;81.90
39099;DHT22;24844;52.380;7.018;2023-07-16T09:40:52;25.30;81.20
39099;DHT22;24844;52.380;7.018;2023-07-16T09:43:19;25.00;82.60
39099;DHT22;24844;52.380;7.018;2023-07-16T09:45:46;25.40;80.60
39099;DHT22;24844;52.380;7.018;2023-07-16T09:48:13;25.10;81.50
39099;DHT22;24844;52.380;7.018;2023-07-16T09:50:49;25.30;82.00
39099;DHT22;24844;52.380;7.018;2023-07-16T09:53:16;25.40;84.10
39099;DHT22;24844;52.380;7.018;2023-07-16T09:55:44;25.50;82.70
39099;DHT22;24844;52.380;7.018;2023-07-16T09:58:11;25.30;82.80
39099;DHT22;24844;52.380;7.018;2023-07-16T10:00:39;25.50;82.00
39099;DHT22;24844;52.380;7.018;2023-07-16T10:03:07;25.00;83.40
39099;DHT22;24844;52.380;7.018;2023-07-16T10:05:36;25.00;83.10
39099;DHT22;24844;52.380;7.018;2023-07-16T10:08:02;24.60;83.20
39099;DHT22;24844;52.380;7.018;2023-07-16T10:10:52;25.40;85.20
39099;DHT22;24844;52.380;7.018;2023-07-16T10:13:22;26.60;80.80
39099;DHT22;24844;52.380;7.018;2023-07-16T10:18:31;28.40;76.20
39099;DHT22;24844;52.380;7.018;2023-07-16T10:21:03;28.80;73.20
39099;DHT22;24844;52.380;7.018;2023-07-16T10:23:40;29.00;71.90
39099;DHT22;24844;52.380;7.018;2023-07-16T10:26:08;28.40;72.40
39099;DHT22;24844;52.380;7.018;2023-07-16T10:28:34;26.90;75.50
39099;DHT22;24844;52.380;7.018;2023-07-16T10:31:00;27.00;75.40
39099;DHT22;24844;52.380;7.018;2023-07-16T10:33:26;27.10;75.90
39099;DHT22;24844;52.380;7.018;2023-07-16T10:35:52;26.80;76.20
39099;DHT22;24844;52.380;7.018;2023-07-16T10:38:18;26.10;77.20
39099;DHT22;24844;52.380;7.018;2023-07-16T10:40:45;26.00;77.90
39099;DHT22;24844;52.380;7.018;2023-07-16T10:43:11;25.80;79.00
39099;DHT22;24844;52.380;7.018;2023-07-16T10:45:37;25.50;78.70
39099;DHT22;24844;52.380;7.018;2023-07-16T10:48:03;25.60;80.30
39099;DHT22;24844;52.380;7.018;2023-07-16T10:50:32;26.40;78.40
39099;DHT22;24844;52.380;7.018;2023-07-16T10:52:58;26.60;78.30
39099;DHT22;24844;52.380;7.018;2023-07-16T10:55:25;26.00;78.50
39099;DHT22;24844;52.380;7.018;2023-07-16T10:57:51;25.20;79.00
39099;DHT22;24844;52.380;7.018;2023-07-16T11:00:18;25.60;80.10
39099;DHT22;24844;52.380;7.018;2023-07-16T11:02:44;25.30;80.10
39099;DHT22;24844;52.380;7.018;2023-07-16T11:05:10;24.70;82.00
39099;DHT22;24844;52.380;7.018;2023-07-16T11:07:37;24.70;83.60
39099;DHT22;24844;52.380;7.018;2023-07-16T11:10:02;24.10;85.70
39099;DHT22;24844;52.380;7.018;2023-07-16T11:12:28;24.20;85.50
39099;DHT22;24844;52.380;7.018;2023-07-16T11:14:55;24.30;86.20
39099;DHT22;24844;52.380;7.018;2023-07-16T11:17:23;23.90;86.40
39099;DHT22;24844;52.380;7.018;2023-07-16T11:19:51;23.80;88.90
39099;DHT22;24844;52.380;7.018;2023-07-16T11:22:17;23.80;90.10
39099;DHT22;24844;52.380;7.018;2023-07-16T11:24:45;23.80;89.70
39099;DHT22;24844;52.380;7.018;2023-07-16T11:27:22;23.90;90.80
39099;DHT22;24844;52.380;7.018;2023-07-16T11:29:50;24.30;88.60
39099;DHT22;24844;52.380;7.018;2023-07-16T11:32:42;24.30;88.40
39099;DHT22;24844;52.380;7.018;2023-07-16T11:35:11;24.80;87.90
39099;DHT22;24844;52.380;7.018;2023-07-16T11:37:36;24.50;88.10
39099;DHT22;24844;52.380;7.018;2023-07-16T11:40:09;24.80;85.70
39099;DHT22;24844;52.380;7.018;2023-07-16T11:42:38;24.30;87.60
39099;DHT22;24844;52.380;7.018;2023-07-16T11:45:14;23.70;89.40
39099;DHT22;24844;52.380;7.018;2023-07-16T11:47:39;23.90;88.20
39099;DHT22;24844;52.380;7.018;2023-07-16T11:50:05;23.90;89.80
39099;DHT22;24844;52.380;7.018;2023-07-16T11:52:31;23.60;90.60
39099;DHT22;24844;52.380;7.018;2023-07-16T11:54:58;24.00;90.60
39099;DHT22;24844;52.380;7.018;2023-07-16T11:57:29;24.60;90.40
39099;DHT22;24844;52.380;7.018;2023-07-16T11:59:55;25.10;89.00
39099;DHT22;24844;52.380;7.018;2023-07-16T12:02:20;25.40;90.00
39099;DHT22;24844;52.380;7.018;2023-07-16T12:04:46;25.10;86.90
39099;DHT22;24844;52.380;7.018;2023-07-16T12:07:12;25.20;85.10
39099;DHT22;24844;52.380;7.018;2023-07-16T12:09:38;25.00;84.60
39099;DHT22;24844;52.380;7.018;2023-07-16T12:12:04;24.80;84.60
39099;DHT22;24844;52.380;7.018;2023-07-16T12:14:31;24.50;86.40
39099;DHT22;24844;52.380;7.018;2023-07-16T12:16:56;24.50;86.10
39099;DHT22;24844;52.380;7.018;2023-07-16T12:19:22;24.40;87.00
39099;DHT22;24844;52.380;7.018;2023-07-16T12:21:48;23.80;88.40
39099;DHT22;24844;52.380;7.018;2023-07-16T12:24:13;24.10;87.30
39099;DHT22;24844;52.380;7.018;2023-07-16T12:26:39;24.20;86.70
39099;DHT22;24844;52.380;7.018;2023-07-16T12:29:04;24.50;87.00
39099;DHT22;24844;52.380;7.018;2023-07-16T12:31:33;24.20;86.70
39099;DHT22;24844;52.380;7.018;2023-07-16T12:34:00;24.80;85.80
39099;DHT22;24844;52.380;7.018;2023-07-16T12:36:27;25.00;83.90
39099;DHT22;24844;52.380;7.018;2023-07-16T12:38:53;24.50;82.60
39099;DHT22;24844;52.380;7.018;2023-07-16T12:41:18;24.60;83.90
39099;DHT22;24844;52.380;7.018;2023-07-16T12:43:45;24.80;83.50
39099;DHT22;24844;52.380;7.018;2023-07-16T12:46:11;25.10;82.90
39099;DHT22;24844;52.380;7.018;2023-07-16T12:48:38;25.00;83.90
39099;DHT22;24844;52.380;7.018;2023-07-16T12:51:03;25.10;82.90
39099;DHT22;24844;52.380;7.018;2023-07-16T12:53:29;24.80;84.50
39099;DHT22;24844;52.380;7.018;2023-07-16T12:55:54;25.10;84.30
39099;DHT22;24844;52.380;7.018;2023-07-16T12:58:21;25.30;83.60
39099;DHT22;24844;52.380;7.018;2023-07-16T13:00:47;25.30;83.50
39099;DHT22;24844;52.380;7.018;2023-07-16T13:03:12;25.20;84.10
39099;DHT22;24844;52.380;7.018;2023-07-16T13:05:42;24.80;84.80
39099;DHT22;24844;52.380;7.018;2023-07-16T13:08:07;24.70;85.70
39099;DHT22;24844;52.380;7.018;2023-07-16T13:10:33;24.90;86.00
39099;DHT22;24844;52.380;7.018;2023-07-16T13:12:59;24.70;85.20
39099;DHT22;24844;52.380;7.018;2023-07-16T13:15:24;24.50;86.00
39099;DHT22;24844;52.380;7.018;2023-07-16T13:17:50;24.50;85.50
39099;DHT22;24844;52.380;7.018;2023-07-16T13:20:17;24.70;85.30
39099;DHT22;24844;52.380;7.018;2023-07-16T13:22:43;24.80;85.10
39099;DHT22;24844;52.380;7.018;2023-07-16T13:25:08;24.80;86.20
39099;DHT22;24844;52.380;7.018;2023-07-16T13:27:34;24.90;84.60
39099;DHT22;24844;52.380;7.018;2023-07-16T13:30:00;24.70;85.00
39099;DHT22;24844;52.380;7.018;2023-07-16T13:32:25;25.00;84.20
39099;DHT22;24844;52.380;7.018;2023-07-16T13:34:51;24.90;84.60
39099;DHT22;24844;52.380;7.018;2023-07-16T13:37:16;25.10;85.00
39099;DHT22;24844;52.380;7.018;2023-07-16T13:39:42;25.00;84.30
39099;DHT22;24844;52.380;7.018;2023-07-16T13:42:08;25.00;84.80
39099;DHT22;24844;52.380;7.018;2023-07-16T13:44:33;25.10;84.50
39099;DHT22;24844;52.380;7.018;2023-07-16T13:46:59;24.50;86.30
39099;DHT22;24844;52.380;7.018;2023-07-16T13:49:25;24.40;85.80
39099;DHT22;24844;52.380;7.018;2023-07-16T13:51:50;24.80;85.30
39099;DHT22;24844;52.380;7.018;2023-07-16T13:54:16;24.60;85.70
39099;DHT22;24844;52.380;7.018;2023-07-16T13:56:41;24.30;86.60
39099;DHT22;24844;52.380;7.018;2023-07-16T13:59:07;24.50;87.00
39099;DHT22;24844;52.380;7.018;2023-07-16T14:01:37;24.90;85.90
39099;DHT22;24844;52.380;7.018;2023-07-16T14:04:03;24.60;86.90
39099;DHT22;24844;52.380;7.018;2023-07-16T14:06:28;24.40;86.40
39099;DHT22;24844;52.380;7.018;2023-07-16T14:08:54;24.60;88.00
39099;DHT22;24844;52.380;7.018;2023-07-16T14:11:21;24.70;86.40
39099;DHT22;24844;52.380;7.018;2023-07-16T14:13:47;24.80;85.20
39099;DHT22;24844;52.380;7.018;2023-07-16T14:16:22;24.70;87.30
39099;DHT22;24844;52.380;7.018;2023-07-16T14:18:52;24.70;87.20
39099;DHT22;24844;52.380;7.018;2023-07-16T14:21:19;24.50;86.80
39099;DHT22;24844;52.380;7.018;2023-07-16T14:23:45;24.90;85.80
39099;DHT22;24844;52.380;7.018;2023-07-16T14:26:11;24.80;85.90
39099;DHT22;24844;52.380;7.018;2023-07-16T14:28:37;24.50;87.10
39099;DHT22;24844;52.380;7.018;2023-07-16T14:31:02;24.50;88.50
39099;DHT22;24844;52.380;7.018;2023-07-16T14:33:28;24.30;89.40
39099;DHT22;24844;52.380;7.018;2023-07-16T14:35:54;24.80;86.70
39099;DHT22;24844;52.380;7.018;2023-07-16T14:38:19;25.00;85.50
39099;DHT22;24844;52.380;7.018;2023-07-16T14:40:45;25.10;85.50
39099;DHT22;24844;52.380;7.018;2023-07-16T14:43:12;25.00;86.30
39099;DHT22;24844;52.380;7.018;2023-07-16T14:45:37;25.20;84.10
39099;DHT22;24844;52.380;7.018;2023-07-16T14:48:04;25.10;85.00
39099;DHT22;24844;52.380;7.018;2023-07-16T14:50:30;24.60;86.90
39099;DHT22;24844;52.380;7.018;2023-07-16T14:52:55;24.70;87.20
39099;DHT22;24844;52.380;7.018;2023-07-16T14:55:21;25.00;87.30
39099;DHT22;24844;52.380;7.018;2023-07-16T14:57:48;25.00;87.80
39099;DHT22;24844;52.380;7.018;2023-07-16T15:00:14;25.00;87.70
39099;DHT22;24844;52.380;7.018;2023-07-16T15:02:39;25.30;87.50
39099;DHT22;24844;52.380;7.018;2023-07-16T15:05:06;25.40;86.60
39099;DHT22;24844;52.380;7.018;2023-07-16T15:07:32;25.40;85.90
39099;DHT22;24844;52.380;7.018;2023-07-16T15:09:58;25.50;83.60
39099;DHT22;24844;52.380;7.018;2023-07-16T15:12:24;25.30;83.60
39099;DHT22;24844;52.380;7.018;2023-07-16T15:14:51;25.40;83.30
39099;DHT22;24844;52.380;7.018;2023-07-16T15:17:16;25.70;82.60
39099;DHT22;24844;52.380;7.018;2023-07-16T15:19:42;25.40;83.70
39099;DHT22;24844;52.380;7.018;2023-07-16T15:22:08;25.40;84.70
39099;DHT22;24844;52.380;7.018;2023-07-16T15:24:35;25.30;84.20
39099;DHT22;24844;52.380;7.018;2023-07-16T15:27:00;25.10;84.00
39099;DHT22;24844;52.380;7.018;2023-07-16T15:29:26;25.00;86.20
39099;DHT22;24844;52.380;7.018;2023-07-16T15:31:52;25.10;85.80
39099;DHT22;24844;52.380;7.018;2023-07-16T15:34:17;24.90;86.20
39099;DHT22;24844;52.380;7.018;2023-07-16T15:36:43;25.10;87.00